Flight Track Log - Related Links

Times and Time Zones

All times are in EDT time to prevent confusion due to time zone crossing. See the DAL1735 flight status page for this flight to view local times or setup timezone preferences in your user account.

Time Position Orientation Groundspeed Altitude Reporting Facility
EDT Latitude Longitude Course Direction KTS MPH feet Rate Location/Type
Sat 07:41:34 PM 33.9467 -118.4472 270° West 188 216 1,100  Level Los Angeles Center
Sat 07:42:36 PM 33.9378 -118.5308 263° West 246 283 2,800 2,049 Climbing Los Angeles Center
Sat 07:43:37 PM 33.9308 -118.6081 264° West 272 313 5,300 2,829 Climbing Los Angeles Center
Sat 07:44:00 PM 33.9000 -118.8224 270° West  Level FlightAware Approximate
Sat 07:44:39 PM 33.9208 -118.7214 264° West 279 321 8,600  Level Los Angeles Center
Sat 07:45:00 PM 33.8782 -118.9625 264° West  Level FlightAware Approximate
Sat 07:45:41 PM 33.9106 -118.8189 263° West 287 330 10,700  Level Los Angeles Center
Sat 07:46:00 PM 33.8658 -119.1049 259° West  Level FlightAware Approximate
Sat 07:46:43 PM 33.9008 -118.9269 264° West 327 376 11,900  Level Los Angeles Center
Sat 07:47:00 PM 33.8500 -119.2458 270° West  Level FlightAware Approximate
Sat 07:47:45 PM 33.8869 -119.0483 262° West 368 423 13,000  Level Los Angeles Center
Sat 07:48:47 PM 33.8750 -119.1753 264° West 384 442 14,700 1,854 Climbing Los Angeles Center
Sat 07:49:48 PM 33.8608 -119.3031 262° West 387 445 16,800 1,122 Climbing Los Angeles Center
Sat 07:50:50 PM 33.8456 -119.4581 263° West 388 447 17,000 1,016 Climbing Los Angeles Center
Sat 07:51:52 PM 33.8339 -119.5881 264° West 391 450 18,900 1,742 Climbing Los Angeles Center
Sat 07:52:54 PM 33.8186 -119.7203 262° West 396 456 20,600 1,694 Climbing Los Angeles Center
Sat 07:53:56 PM 33.8050 -119.8561 263° West 406 467 22,400 1,610 Climbing Los Angeles Center
Sat 07:54:57 PM 33.7900 -119.9919 262° West 410 472 23,900 1,366 Climbing Los Angeles Center
Sat 07:55:59 PM 33.7761 -120.1283 263° West 417 480 25,200 1,210 Climbing Los Angeles Center
Sat 07:57:01 PM 33.7606 -120.2689 262° West 422 486 26,400 1,258 Climbing Los Angeles Center
Sat 07:58:03 PM 33.7406 -120.4428 262° West 428 493 27,800 1,113 Climbing Los Angeles Center
Sat 07:59:05 PM 33.7236 -120.5911 262° West 435 501 28,700 964 Climbing Los Angeles Center
Sat 08:00:20 PM 33.7061 -120.7397 262° West 442 509 30,000 569 Climbing Los Angeles Center
Sat 08:01:22 PM 33.6861 -120.9133 262° West 442 509 30,000  Level Los Angeles Center
Sat 08:02:24 PM 33.6689 -121.0578 262° West 439 505 30,000  Level Los Angeles Center
Sat 08:03:25 PM 33.6522 -121.2056 262° West 443 510 30,000  Level Los Angeles Center
Sat 08:04:27 PM 33.6308 -121.3831 262° West 446 513 30,000  Level Los Angeles Center
Sat 08:05:29 PM 33.6131 -121.5300 262° West 446 513 30,000  Level Los Angeles Center
Sat 08:06:31 PM 33.5953 -121.6758 262° West 442 509 30,000  Level Los Angeles Center
Sat 08:07:33 PM 33.5778 -121.8200 262° West 438 504 30,000  Level Los Angeles Center
Sat 08:08:34 PM 33.5583 -121.9636 261° West 437 503 30,000  Level Los Angeles Center
Sat 08:09:36 PM 33.5425 -122.1075 263° West 435 501 30,000  Level Los Angeles Center
Sat 08:10:38 PM 33.5244 -122.2508 261° West 434 499 30,000  Level Los Angeles Center
Sat 08:11:40 PM 33.5028 -122.4225 261° West 434 499 30,000  Level Los Angeles Center
Sat 08:13:00 PM 33.4617 -122.6081 257° West  Level FlightAware Approximate
Sat 08:20:00 PM 33.2637 -123.5828 257° West  Level FlightAware Approximate
Sat 08:21:00 PM 33.2348 -123.7217 256° West  Level FlightAware Approximate
Sat 08:22:00 PM 33.2057 -123.8605 256° West  Level FlightAware Approximate
Sat 08:23:00 PM 33.1767 -123.9976 256° West  Level FlightAware Approximate
Sat 08:24:00 PM 33.1475 -124.1347 256° West  Level FlightAware Approximate
Sat 08:25:00 PM 33.1182 -124.2716 256° West  Level FlightAware Approximate
Sat 08:26:00 PM 33.0887 -124.4084 256° West  Level FlightAware Approximate
Sat 08:27:00 PM 33.0609 -124.5425 255° West  Level FlightAware Approximate
Sat 08:28:00 PM 33.0304 -124.6789 255° West  Level FlightAware Approximate
Sat 08:29:00 PM 32.9997 -124.8152 255° West  Level FlightAware Approximate
Sat 08:29:15 PM 33.0667 -124.5167 255° West 426 490 30,000  Level Oakland Oceanic (ODAPS)
Sat 08:30:00 PM 32.9689 -124.9514 255° West  Level FlightAware Approximate
Sat 08:31:00 PM 32.9379 -125.0876 255° West  Level FlightAware Approximate
Sat 08:32:00 PM 32.9068 -125.2236 255° West  Level FlightAware Approximate
Sat 08:33:00 PM 32.8755 -125.3596 255° West  Level FlightAware Approximate
Sat 08:34:00 PM 32.8441 -125.4954 255° West  Level FlightAware Approximate
Sat 08:35:00 PM 32.7869 -125.7408 254° West 426 490 30,000  Level FlightAware Transoceanic
Sat 08:36:00 PM 32.7551 -125.8764 254° West 426 490 30,000  Level FlightAware Transoceanic
Sat 08:37:00 PM 32.7231 -126.0118 254° West 426 490 30,000  Level FlightAware Transoceanic
Sat 08:38:00 PM 32.6910 -126.1471 254° West 426 490 30,000  Level FlightAware Transoceanic
Sat 08:39:00 PM 32.6587 -126.2824 254° West 426 490 30,000  Level FlightAware Transoceanic
Sat 08:40:00 PM 32.6263 -126.4175 254° West 426 490 30,000  Level FlightAware Transoceanic
Sat 08:41:00 PM 32.5938 -126.5526 254° West 426 490 30,000  Level FlightAware Transoceanic
Sat 08:42:00 PM 32.5611 -126.6875 254° West 426 490 30,000  Level FlightAware Transoceanic
Sat 08:43:00 PM 32.5282 -126.8224 254° West 426 490 30,000  Level FlightAware Transoceanic
Sat 08:44:00 PM 32.4953 -126.9571 254° West 426 490 30,000  Level FlightAware Transoceanic
Sat 08:45:00 PM 32.4621 -127.0918 254° West 426 490 30,000  Level FlightAware Transoceanic
Sat 08:46:00 PM 32.4289 -127.2263 254° West 426 490 30,000  Level FlightAware Transoceanic
Sat 08:47:00 PM 32.3955 -127.3608 254° West 426 490 30,000  Level FlightAware Transoceanic
Sat 08:48:00 PM 32.3619 -127.4952 253° West 426 490 30,000  Level FlightAware Transoceanic
Sat 08:49:00 PM 32.3282 -127.6294 253° West 426 490 30,000  Level FlightAware Transoceanic
Sat 08:50:00 PM 32.2944 -127.7636 253° West 426 490 30,000  Level FlightAware Transoceanic
Sat 08:51:00 PM 32.2604 -127.8976 253° West 426 490 30,000  Level FlightAware Transoceanic
Sat 08:52:00 PM 32.2263 -128.0316 253° West 426 490 30,000  Level FlightAware Transoceanic
Sat 08:53:00 PM 32.1920 -128.1655 253° West 426 490 30,000  Level FlightAware Transoceanic
Sat 08:54:00 PM 32.1576 -128.2992 253° West 426 490 30,000  Level FlightAware Transoceanic
Sat 08:55:00 PM 32.1231 -128.4328 253° West 426 490 30,000  Level FlightAware Transoceanic
Sat 08:56:00 PM 32.0884 -128.5664 253° West 426 490 30,000  Level FlightAware Transoceanic
Sat 08:57:00 PM 32.0536 -128.6998 253° West 426 490 30,000  Level FlightAware Transoceanic
Sat 08:58:00 PM 32.0186 -128.8332 253° West 426 490 30,000  Level FlightAware Transoceanic
Sat 08:59:00 PM 31.9835 -128.9664 253° West 426 490 30,000  Level FlightAware Transoceanic
Sat 09:00:00 PM 31.9482 -129.0996 253° West 426 490 30,000  Level FlightAware Transoceanic
Sat 09:01:00 PM 31.9129 -129.2326 253° West 426 490 30,000  Level FlightAware Transoceanic
Sat 09:02:00 PM 31.8774 -129.3656 252° West 426 490 30,000  Level FlightAware Transoceanic
Sat 09:03:00 PM 31.8417 -129.4984 252° West 426 490 30,000  Level FlightAware Transoceanic
Sat 09:04:00 PM 31.8059 -129.6311 252° West 426 490 30,000  Level FlightAware Transoceanic
Sat 09:05:00 PM 31.7700 -129.7638 252° West 426 490 30,000  Level FlightAware Transoceanic
Sat 09:06:00 PM 31.7339 -129.8963 252° West 426 490 30,000  Level FlightAware Transoceanic
Sat 09:07:00 PM 31.6977 -130.0287 252° West 426 490 30,000  Level FlightAware Transoceanic
Sat 09:08:00 PM 31.6614 -130.1611 252° West 426 490 30,000  Level FlightAware Transoceanic
Sat 09:09:00 PM 31.6249 -130.2933 252° West 426 490 30,000  Level FlightAware Transoceanic
Sat 09:10:00 PM 31.5883 -130.4254 252° West 426 490 30,000  Level FlightAware Transoceanic
Sat 09:11:00 PM 31.5515 -130.5574 252° West 426 490 30,000  Level FlightAware Transoceanic
Sat 09:12:00 PM 31.5146 -130.6893 252° West 426 490 30,000  Level FlightAware Transoceanic
Sat 09:13:00 PM 31.4776 -130.8211 252° West 426 490 30,000  Level FlightAware Transoceanic
Sat 09:14:00 PM 31.4404 -130.9528 252° West 426 490 30,000  Level FlightAware Transoceanic
Sat 09:15:00 PM 31.4032 -131.0844 252° West 426 490 30,000  Level FlightAware Transoceanic
Sat 09:16:00 PM 31.3657 -131.2159 252° West 426 490 30,000  Level FlightAware Transoceanic
Sat 09:17:00 PM 31.3282 -131.3472 251° West 426 490 30,000  Level FlightAware Transoceanic
Sat 09:18:00 PM 31.2905 -131.4785 251° West 426 490 30,000  Level FlightAware Transoceanic
Sat 09:19:00 PM 31.2526 -131.6097 251° West 426 490 30,000  Level FlightAware Transoceanic
Sat 09:20:00 PM 31.2147 -131.7408 251° West 426 490 30,000  Level FlightAware Transoceanic
Sat 09:21:00 PM 31.1766 -131.8717 251° West 426 490 30,000  Level FlightAware Transoceanic
Sat 09:22:00 PM 31.1384 -132.0026 251° West 426 490 30,000  Level FlightAware Transoceanic
Sat 09:23:00 PM 31.1000 -132.1333 251° West 426 490 30,000  Level FlightAware Transoceanic
Sat 09:24:00 PM 31.0607 -132.2668 251° West 426 490 30,000  Level FlightAware Transoceanic
Sat 09:25:00 PM 31.0214 -132.4001 251° West 426 490 30,000 882 Level FlightAware Transoceanic
Sat 09:25:08 PM 31.1000 -132.1333 251° West 427 491 31,000  Climbing Oakland Oceanic (ODAPS)
Sat 09:26:00 PM 30.9818 -132.5333 251° West 426 490 30,000 -536 Descending FlightAware Transoceanic
Sat 09:27:00 PM 30.9422 -132.6664 251° West 426 490 30,000  Level FlightAware Transoceanic
Sat 09:28:00 PM 30.9024 -132.7994 251° West 426 490 30,000  Level FlightAware Transoceanic
Sat 09:29:00 PM 30.8625 -132.9323 251° West 426 490 30,000  Level FlightAware Transoceanic
Sat 09:30:00 PM 30.8224 -133.0650 251° West 426 490 30,000 500 Level FlightAware Transoceanic
Sat 09:31:00 PM 30.7482 -133.3093 250° West 427 491 31,000 500 Climbing FlightAware Transoceanic
Sat 09:32:00 PM 30.7085 -133.4394 250° West 427 491 31,000  Level FlightAware Transoceanic
Sat 09:33:00 PM 30.6686 -133.5694 250° West 427 491 31,000  Level FlightAware Transoceanic
Sat 09:34:00 PM 30.6286 -133.6994 250° West 427 491 31,000  Level FlightAware Transoceanic
Sat 09:35:00 PM 30.5885 -133.8292 250° West 427 491 31,000  Level FlightAware Transoceanic
Sat 09:36:00 PM 30.5483 -133.9589 250° West 427 491 31,000  Level FlightAware Transoceanic
Sat 09:37:00 PM 30.5079 -134.0885 250° West 427 491 31,000  Level FlightAware Transoceanic
Sat 09:38:00 PM 30.4674 -134.2179 250° West 427 491 31,000  Level FlightAware Transoceanic
Sat 09:39:00 PM 30.4267 -134.3473 250° West 427 491 31,000  Level FlightAware Transoceanic
Sat 09:40:00 PM 30.3860 -134.4766 250° West 427 491 31,000  Level FlightAware Transoceanic
Sat 09:41:00 PM 30.3451 -134.6057 250° West 427 491 31,000  Level FlightAware Transoceanic
Sat 09:42:00 PM 30.3040 -134.7348 250° West 427 491 31,000  Level FlightAware Transoceanic
Sat 09:43:00 PM 30.2629 -134.8637 250° West 427 491 31,000  Level FlightAware Transoceanic
Sat 09:44:00 PM 30.2216 -134.9926 250° West 427 491 31,000  Level FlightAware Transoceanic
Sat 09:45:00 PM 30.1802 -135.1213 250° West 427 491 31,000  Level FlightAware Transoceanic
Sat 09:46:00 PM 30.1387 -135.2499 249° West 427 491 31,000  Level FlightAware Transoceanic
Sat 09:47:00 PM 30.0970 -135.3784 249° West 427 491 31,000  Level FlightAware Transoceanic
Sat 09:48:00 PM 30.0553 -135.5068 249° West 427 491 31,000  Level FlightAware Transoceanic
Sat 09:49:00 PM 30.0134 -135.6351 249° West 427 491 31,000  Level FlightAware Transoceanic
Sat 09:50:00 PM 29.9713 -135.7633 249° West 427 491 31,000  Level FlightAware Transoceanic
Sat 09:51:00 PM 29.9292 -135.8914 249° West 427 491 31,000  Level FlightAware Transoceanic
Sat 09:52:00 PM 29.8869 -136.0193 249° West 427 491 31,000  Level FlightAware Transoceanic
Sat 09:53:00 PM 29.8445 -136.1472 249° West 427 491 31,000  Level FlightAware Transoceanic
Sat 09:54:00 PM 29.8020 -136.2750 249° West 427 491 31,000  Level FlightAware Transoceanic
Sat 09:55:00 PM 29.7594 -136.4026 249° West 427 491 31,000  Level FlightAware Transoceanic
Sat 09:56:00 PM 29.7166 -136.5301 249° West 427 491 31,000  Level FlightAware Transoceanic
Sat 09:57:00 PM 29.6737 -136.6576 249° West 427 491 31,000  Level FlightAware Transoceanic
Sat 09:58:00 PM 29.6307 -136.7849 249° West 427 491 31,000  Level FlightAware Transoceanic
Sat 09:59:00 PM 29.5876 -136.9121 249° West 427 491 31,000  Level FlightAware Transoceanic
Sat 10:00:00 PM 29.5443 -137.0392 249° West 427 491 31,000  Level FlightAware Transoceanic
Sat 10:01:00 PM 29.5010 -137.1662 249° West 427 491 31,000  Level FlightAware Transoceanic
Sat 10:02:00 PM 29.4575 -137.2930 248° West 427 491 31,000  Level FlightAware Transoceanic
Sat 10:03:00 PM 29.4139 -137.4198 248° West 427 491 31,000  Level FlightAware Transoceanic
Sat 10:04:00 PM 29.3701 -137.5465 248° West 427 491 31,000  Level FlightAware Transoceanic
Sat 10:05:00 PM 29.3263 -137.6730 248° West 427 491 31,000  Level FlightAware Transoceanic
Sat 10:06:00 PM 29.2823 -137.7995 248° West 427 491 31,000  Level FlightAware Transoceanic
Sat 10:07:00 PM 29.2382 -137.9258 248° West 427 491 31,000  Level FlightAware Transoceanic
Sat 10:08:00 PM 29.1940 -138.0520 248° West 427 491 31,000  Level FlightAware Transoceanic
Sat 10:09:00 PM 29.1497 -138.1781 248° West 427 491 31,000  Level FlightAware Transoceanic
Sat 10:10:00 PM 29.1052 -138.3042 248° West 427 491 31,000  Level FlightAware Transoceanic
Sat 10:11:00 PM 29.0607 -138.4301 248° West 427 491 31,000  Level FlightAware Transoceanic
Sat 10:12:00 PM 29.0160 -138.5558 248° West 427 491 31,000  Level FlightAware Transoceanic
Sat 10:13:00 PM 28.9712 -138.6815 248° West 427 491 31,000  Level FlightAware Transoceanic
Sat 10:14:00 PM 28.9263 -138.8071 248° West 427 491 31,000  Level FlightAware Transoceanic
Sat 10:15:00 PM 28.8813 -138.9326 248° West 427 491 31,000  Level FlightAware Transoceanic
Sat 10:16:00 PM 28.8361 -139.0579 248° West 427 491 31,000  Level FlightAware Transoceanic
Sat 10:17:00 PM 28.7909 -139.1832 248° West 427 491 31,000  Level FlightAware Transoceanic
Sat 10:18:00 PM 28.7455 -139.3083 247° West 427 491 31,000  Level FlightAware Transoceanic
Sat 10:19:00 PM 28.7000 -139.4333 247° West 427 491 31,000  Level FlightAware Transoceanic
Sat 10:20:00 PM 28.6530 -139.5610 247° West 427 491 31,000  Level FlightAware Transoceanic
Sat 10:21:00 PM 28.6059 -139.6886 247° West 427 491 31,000  Level FlightAware Transoceanic
Sat 10:21:07 PM 28.7000 -139.4333 247° West 422 486 31,000  Level Oakland Oceanic (ODAPS)
Sat 10:22:00 PM 28.5587 -139.8161 247° West 427 491 31,000  Level FlightAware Transoceanic
Sat 10:23:00 PM 28.5113 -139.9434 247° West 427 491 31,000  Level FlightAware Transoceanic
Sat 10:24:00 PM 28.4639 -140.0707 247° West 427 491 31,000  Level FlightAware Transoceanic
Sat 10:25:00 PM 28.4163 -140.1978 247° West 427 491 31,000  Level FlightAware Transoceanic
Sat 10:26:00 PM 28.3686 -140.3248 247° West 427 491 31,000  Level FlightAware Transoceanic
Sat 10:27:00 PM 28.2883 -140.5377 247° West 422 486 31,000  Level FlightAware Transoceanic
Sat 10:28:00 PM 28.2420 -140.6599 247° West 422 486 31,000  Level FlightAware Transoceanic
Sat 10:29:00 PM 28.1956 -140.7820 247° West 422 486 31,000  Level FlightAware Transoceanic
Sat 10:30:00 PM 28.1491 -140.9040 247° West 422 486 31,000  Level FlightAware Transoceanic
Sat 10:31:00 PM 28.1024 -141.0258 247° West 422 486 31,000  Level FlightAware Transoceanic
Sat 10:32:00 PM 28.0557 -141.1476 246° West 422 486 31,000  Level FlightAware Transoceanic
Sat 10:33:00 PM 28.0089 -141.2692 246° West 422 486 31,000  Level FlightAware Transoceanic
Sat 10:34:00 PM 27.9619 -141.3908 246° West 422 486 31,000  Level FlightAware Transoceanic
Sat 10:35:00 PM 27.9149 -141.5122 246° West 422 486 31,000  Level FlightAware Transoceanic
Sat 10:36:00 PM 27.8677 -141.6335 246° West 422 486 31,000  Level FlightAware Transoceanic
Sat 10:37:00 PM 27.8205 -141.7548 246° West 422 486 31,000  Level FlightAware Transoceanic
Sat 10:38:00 PM 27.7731 -141.8759 246° West 422 486 31,000  Level FlightAware Transoceanic
Sat 10:39:00 PM 27.7256 -141.9969 246° West 422 486 31,000  Level FlightAware Transoceanic
Sat 10:40:00 PM 27.6781 -142.1178 246° West 422 486 31,000  Level FlightAware Transoceanic
Sat 10:41:00 PM 27.6304 -142.2386 246° West 422 486 31,000  Level FlightAware Transoceanic
Sat 10:42:00 PM 27.5826 -142.3593 246° West 422 486 31,000  Level FlightAware Transoceanic
Sat 10:43:00 PM 27.5347 -142.4799 246° West 422 486 31,000  Level FlightAware Transoceanic
Sat 10:44:00 PM 27.4867 -142.6004 246° West 422 486 31,000  Level FlightAware Transoceanic
Sat 10:45:00 PM 27.4386 -142.7208 246° West 422 486 31,000  Level FlightAware Transoceanic
Sat 10:46:00 PM 27.3904 -142.8411 246° West 422 486 31,000  Level FlightAware Transoceanic
Sat 10:47:00 PM 27.3421 -142.9613 246° West 422 486 31,000  Level FlightAware Transoceanic
Sat 10:48:00 PM 27.2937 -143.0813 246° West 422 486 31,000  Level FlightAware Transoceanic
Sat 10:49:00 PM 27.2452 -143.2013 246° West 422 486 31,000  Level FlightAware Transoceanic
Sat 10:50:00 PM 27.1966 -143.3212 245° Southwest 422 486 31,000  Level FlightAware Transoceanic
Sat 10:51:00 PM 27.1479 -143.4409 245° Southwest 422 486 31,000  Level FlightAware Transoceanic
Sat 10:52:00 PM 27.0990 -143.5606 245° Southwest 422 486 31,000  Level FlightAware Transoceanic
Sat 10:53:00 PM 27.0501 -143.6801 245° Southwest 422 486 31,000  Level FlightAware Transoceanic
Sat 10:54:00 PM 27.0011 -143.7995 245° Southwest 422 486 31,000  Level FlightAware Transoceanic
Sat 10:55:00 PM 26.9520 -143.9189 245° Southwest 422 486 31,000  Level FlightAware Transoceanic
Sat 10:56:00 PM 26.9028 -144.0381 245° Southwest 422 486 31,000  Level FlightAware Transoceanic
Sat 10:57:00 PM 26.8534 -144.1573 245° Southwest 422 486 31,000  Level FlightAware Transoceanic
Sat 10:58:00 PM 26.8040 -144.2763 245° Southwest 422 486 31,000  Level FlightAware Transoceanic
Sat 10:59:00 PM 26.7545 -144.3952 245° Southwest 422 486 31,000  Level FlightAware Transoceanic
Sat 11:00:00 PM 26.7049 -144.5140 245° Southwest 422 486 31,000  Level FlightAware Transoceanic
Sat 11:01:00 PM 26.6552 -144.6327 245° Southwest 422 486 31,000  Level FlightAware Transoceanic
Sat 11:02:00 PM 26.6054 -144.7513 245° Southwest 422 486 31,000  Level FlightAware Transoceanic
Sat 11:03:00 PM 26.5554 -144.8699 245° Southwest 422 486 31,000  Level FlightAware Transoceanic
Sat 11:04:00 PM 26.5054 -144.9883 245° Southwest 422 486 31,000  Level FlightAware Transoceanic
Sat 11:05:00 PM 26.4553 -145.1066 245° Southwest 422 486 31,000  Level FlightAware Transoceanic
Sat 11:06:00 PM 26.4051 -145.2248 245° Southwest 422 486 31,000  Level FlightAware Transoceanic
Sat 11:07:00 PM 26.3548 -145.3429 245° Southwest 422 486 31,000  Level FlightAware Transoceanic
Sat 11:08:00 PM 26.3044 -145.4609 244° Southwest 422 486 31,000  Level FlightAware Transoceanic
Sat 11:09:00 PM 26.2539 -145.5788 244° Southwest 422 486 31,000  Level FlightAware Transoceanic
Sat 11:10:00 PM 26.2033 -145.6965 244° Southwest 422 486 31,000  Level FlightAware Transoceanic
Sat 11:11:00 PM 26.1526 -145.8142 244° Southwest 422 486 31,000  Level FlightAware Transoceanic
Sat 11:12:00 PM 26.1019 -145.9318 244° Southwest 422 486 31,000  Level FlightAware Transoceanic
Sat 11:13:00 PM 26.0510 -146.0493 244° Southwest 422 486 31,000  Level FlightAware Transoceanic
Sat 11:14:00 PM 26.0000 -146.1667 244° Southwest 422 486 31,000  Level FlightAware Transoceanic
Sat 11:14:33 PM 26.0000 -146.1667 244° Southwest 436 502 31,000  Level Oakland Oceanic (ODAPS)
Sat 11:15:00 PM 25.9453 -146.2930 244° Southwest 422 486 31,000  Level FlightAware Transoceanic
Sat 11:16:00 PM 25.8904 -146.4192 244° Southwest 422 486 31,000  Level FlightAware Transoceanic
Sat 11:17:00 PM 25.8355 -146.5453 244° Southwest 422 486 31,000  Level FlightAware Transoceanic
Sat 11:18:00 PM 25.7804 -146.6712 244° Southwest 422 486 31,000  Level FlightAware Transoceanic
Sat 11:19:00 PM 25.7252 -146.7971 244° Southwest 422 486 31,000  Level FlightAware Transoceanic
Sat 11:20:00 PM 25.6289 -147.0159 244° Southwest 436 502 31,000  Level FlightAware Transoceanic
Sat 11:21:00 PM 25.5755 -147.1367 244° Southwest 436 502 31,000  Level FlightAware Transoceanic
Sat 11:22:00 PM 25.5220 -147.2575 244° Southwest 436 502 31,000  Level FlightAware Transoceanic
Sat 11:23:00 PM 25.4684 -147.3782 244° Southwest 436 502 31,000  Level FlightAware Transoceanic
Sat 11:24:00 PM 25.4147 -147.4987 244° Southwest 436 502 31,000  Level FlightAware Transoceanic
Sat 11:25:00 PM 25.3609 -147.6192 244° Southwest 436 502 31,000  Level FlightAware Transoceanic
Sat 11:26:00 PM 25.3070 -147.7395 244° Southwest 436 502 31,000  Level FlightAware Transoceanic
Sat 11:27:00 PM 25.2530 -147.8598 244° Southwest 436 502 31,000  Level FlightAware Transoceanic
Sat 11:28:00 PM 25.1989 -147.9799 244° Southwest 436 502 31,000  Level FlightAware Transoceanic
Sat 11:29:00 PM 25.1447 -148.0999 243° Southwest 436 502 31,000  Level FlightAware Transoceanic
Sat 11:30:00 PM 25.0904 -148.2198 243° Southwest 436 502 31,000  Level FlightAware Transoceanic
Sat 11:31:00 PM 25.0360 -148.3396 243° Southwest 436 502 31,000  Level FlightAware Transoceanic
Sat 11:32:00 PM 24.9816 -148.4593 243° Southwest 436 502 31,000  Level FlightAware Transoceanic
Sat 11:33:00 PM 24.9270 -148.5789 243° Southwest 436 502 31,000  Level FlightAware Transoceanic
Sat 11:34:00 PM 24.8723 -148.6984 243° Southwest 436 502 31,000  Level FlightAware Transoceanic
Sat 11:35:00 PM 24.8175 -148.8178 243° Southwest 436 502 31,000  Level FlightAware Transoceanic
Sat 11:36:00 PM 24.7627 -148.9371 243° Southwest 436 502 31,000  Level FlightAware Transoceanic
Sat 11:37:00 PM 24.7077 -149.0562 243° Southwest 436 502 31,000  Level FlightAware Transoceanic
Sat 11:38:00 PM 24.6527 -149.1753 243° Southwest 436 502 31,000  Level FlightAware Transoceanic
Sat 11:39:00 PM 24.5975 -149.2943 243° Southwest 436 502 31,000  Level FlightAware Transoceanic
Sat 11:40:00 PM 24.5423 -149.4131 243° Southwest 436 502 31,000  Level FlightAware Transoceanic
Sat 11:41:00 PM 24.4869 -149.5319 243° Southwest 436 502 31,000  Level FlightAware Transoceanic
Sat 11:42:00 PM 24.4315 -149.6505 243° Southwest 436 502 31,000  Level FlightAware Transoceanic
Sat 11:43:00 PM 24.3760 -149.7691 243° Southwest 436 502 31,000  Level FlightAware Transoceanic
Sat 11:44:00 PM 24.3204 -149.8875 243° Southwest 436 502 31,000  Level FlightAware Transoceanic
Sat 11:45:00 PM 24.2647 -150.0058 243° Southwest 436 502 31,000  Level FlightAware Transoceanic
Sat 11:46:00 PM 24.2089 -150.1241 243° Southwest 436 502 31,000  Level FlightAware Transoceanic
Sat 11:47:00 PM 24.1530 -150.2422 243° Southwest 436 502 31,000  Level FlightAware Transoceanic
Sat 11:48:00 PM 24.0970 -150.3602 243° Southwest 436 502 31,000  Level FlightAware Transoceanic
Sat 11:49:00 PM 24.0410 -150.4782 242° Southwest 436 502 31,000  Level FlightAware Transoceanic
Sat 11:50:00 PM 23.9848 -150.5960 242° Southwest 436 502 31,000  Level FlightAware Transoceanic
Sat 11:51:00 PM 23.9286 -150.7137 242° Southwest 436 502 31,000  Level FlightAware Transoceanic
Sat 11:52:00 PM 23.8722 -150.8313 242° Southwest 436 502 31,000  Level FlightAware Transoceanic
Sat 11:53:00 PM 23.8158 -150.9488 242° Southwest 436 502 31,000  Level FlightAware Transoceanic
Sat 11:54:00 PM 23.7593 -151.0662 242° Southwest 436 502 31,000  Level FlightAware Transoceanic
Sat 11:55:00 PM 23.7027 -151.1835 242° Southwest 436 502 31,000  Level FlightAware Transoceanic
Sat 11:56:00 PM 23.6460 -151.3007 242° Southwest 436 502 31,000  Level FlightAware Transoceanic
Sat 11:57:00 PM 23.5892 -151.4178 242° Southwest 436 502 31,000  Level FlightAware Transoceanic
Sat 11:58:00 PM 23.5324 -151.5348 242° Southwest 436 502 31,000  Level FlightAware Transoceanic
Sat 11:59:00 PM 23.4754 -151.6517 242° Southwest 436 502 31,000  Level FlightAware Transoceanic
Sun 12:00:00 AM 23.4184 -151.7685 242° Southwest 436 502 31,000  Level FlightAware Transoceanic
Sun 12:01:00 AM 23.3612 -151.8852 242° Southwest 436 502 31,000  Level FlightAware Transoceanic
Sun 12:02:00 AM 23.3040 -152.0018 242° Southwest 436 502 31,000  Level FlightAware Transoceanic
Sun 12:03:00 AM 23.2467 -152.1183 242° Southwest 436 502 31,000  Level FlightAware Transoceanic
Sun 12:04:00 AM 23.1893 -152.2347 242° Southwest 436 502 31,000  Level FlightAware Transoceanic
Sun 12:05:00 AM 23.1319 -152.3510 242° Southwest 436 502 31,000  Level FlightAware Transoceanic
Sun 12:06:00 AM 23.0743 -152.4672 242° Southwest 436 502 31,000  Level FlightAware Transoceanic
Sun 12:07:00 AM 23.0167 -152.5833 242° Southwest 436 502 31,000  Level FlightAware Transoceanic
Sun 12:07:07 AM 22.9667 -152.6667 242° Southwest 470 541 31,000  Level Honolulu Center
Sun 12:08:00 AM 22.9580 -152.7020 242° Southwest 436 502 31,000  Level FlightAware Transoceanic
Sun 12:08:07 AM 22.9167 -152.8000 248° West 450 518 31,000  Level Honolulu Center
Sun 12:09:00 AM 22.8993 -152.8206 242° Southwest 436 502 31,000  Level FlightAware Transoceanic
Sun 12:09:07 AM 22.8500 -152.9167 238° Southwest 450 518 31,000  Level Honolulu Center
Sun 12:10:00 AM 22.8404 -152.9391 242° Southwest 436 502 31,000  Level FlightAware Transoceanic
Sun 12:10:07 AM 22.7833 -153.0333 238° Southwest 460 529 31,000  Level Honolulu Center
Sun 12:11:00 AM 22.7815 -153.0575 242° Southwest 436 502 31,000  Level FlightAware Transoceanic
Sun 12:11:07 AM 22.7333 -153.1500 245° Southwest 450 518 31,000  Level Honolulu Center
Sun 12:12:00 AM 22.7225 -153.1758 242° Southwest 436 502 31,000  Level FlightAware Transoceanic
Sun 12:12:07 AM 22.6667 -153.2667 238° Southwest 460 529 31,000  Level Honolulu Center
Sun 12:13:07 AM 22.6167 -153.3833 245° Southwest 450 518 31,000  Level Honolulu Center
Sun 12:14:08 AM 22.5833 -153.5167 255° West 440 506 31,000  Level Honolulu Center
Sun 12:15:08 AM 22.5667 -153.6667 263° West 450 518 31,000  Level Honolulu Center
Sun 12:16:08 AM 22.5500 -153.7667 260° West 460 529 31,000  Level Honolulu Center
Sun 12:17:08 AM 22.5333 -153.9333 264° West 460 529 31,000  Level Honolulu Center
Sun 12:18:08 AM 22.5167 -154.0667 262° West 450 518 31,000  Level Honolulu Center
Sun 12:19:08 AM 22.5000 -154.2000 262° West 460 529 31,000  Level Honolulu Center
Sun 12:20:09 AM 22.4833 -154.3500 263° West 460 529 31,000  Level Honolulu Center
Sun 12:21:09 AM 22.4667 -154.4833 262° West 460 529 31,000  Level Honolulu Center
Sun 12:22:09 AM 22.4333 -154.6167 255° West 460 529 31,000  Level Honolulu Center
Sun 12:23:09 AM 22.4167 -154.7500 262° West 460 529 31,000  Level Honolulu Center
Sun 12:24:09 AM 22.4000 -154.8833 262° West 460 529 31,000  Level Honolulu Center
Sun 12:25:09 AM 22.3833 -155.0167 262° West 460 529 31,000  Level Honolulu Center
Sun 12:26:09 AM 22.3667 -155.1667 263° West 450 518 31,000  Level Honolulu Center
Sun 12:27:09 AM 22.3500 -155.3000 262° West 460 529 31,000  Level Honolulu Center
Sun 12:28:09 AM 22.3333 -155.4333 262° West 450 518 31,000  Level Honolulu Center
Sun 12:29:09 AM 22.3000 -155.5667 255° West 460 529 31,000  Level Honolulu Center
Sun 12:30:10 AM 22.2833 -155.7000 262° West 450 518 31,000  Level Honolulu Center
Sun 12:31:10 AM 22.2667 -155.8333 262° West 450 518 31,000  Level Honolulu Center
Sun 12:32:10 AM 22.2500 -155.9667 262° West 450 518 31,000  Level Honolulu Center
Sun 12:33:10 AM 22.2333 -156.1000 262° West 460 529 31,000  Level Honolulu Center
Sun 12:34:10 AM 22.2000 -156.2333 255° West 450 518 31,000  Level Honolulu Center
Sun 12:35:10 AM 22.1833 -156.3667 262° West 460 529 31,000  Level Honolulu Center
Sun 12:36:10 AM 22.1667 -156.5000 262° West 450 518 31,000  Level Honolulu Center
Sun 12:37:11 AM 22.1500 -156.6500 263° West 460 529 31,000  Level Honolulu Center
Sun 12:38:11 AM 22.1167 -156.7833 255° West 460 529 31,000  Level Honolulu Center
Sun 12:39:11 AM 22.1000 -156.9167 262° West 450 518 31,000  Level Honolulu Center
Sun 12:40:11 AM 22.0833 -157.0500 262° West 450 518 31,000  Level Honolulu Center
Sun 12:41:11 AM 22.0667 -157.1833 262° West 460 529 31,000 -450 Level Honolulu Center
Sun 12:42:11 AM 22.0333 -157.3333 257° West 460 529 30,100 -1,250 Descending Honolulu Center
Sun 12:43:11 AM 22.0167 -157.4667 262° West 470 541 28,500 -1,884 Descending Honolulu Center
Sun 12:44:12 AM 22.0000 -157.6000 262° West 470 541 26,300 -1,983 Descending Honolulu Center
Sun 12:45:12 AM 21.9667 -157.7333 255° West 460 529 24,500 -1,750 Descending Honolulu Center
Sun 12:46:12 AM 21.9500 -157.8667 262° West 450 518 22,800 -1,750 Descending Honolulu Center
Sun 12:47:12 AM 21.9333 -158.0000 262° West 440 506 21,000 -1,800 Descending Honolulu Center
Sun 12:48:12 AM 21.9167 -158.1167 261° West 430 495 19,200 -1,750 Descending Honolulu Center
Sun 12:49:12 AM 21.9000 -158.2333 261° West 410 472 17,500 -1,686 Descending Honolulu Center
Sun 12:50:13 AM 21.8667 -158.3500 253° West 390 449 15,800 -1,550 Descending Honolulu Center
Sun 12:51:12 AM 21.8500 -158.4667 261° West 390 449 14,400 -1,412 Descending Honolulu Center
Sun 12:52:12 AM 21.8333 -158.5833 261° West 370 426 13,000 -1,587 Descending Honolulu Center
Sun 12:53:13 AM 21.8167 -158.6833 260° West 370 426 11,200 -1,488 Descending Honolulu Center
Sun 12:54:13 AM 21.8000 -158.8000 261° West 380 437 10,000 -1,300 Descending Honolulu Center
Sun 12:55:13 AM 21.7833 -158.9167 261° West 320 368 8,600 -1,750 Descending Honolulu Center
Sun 12:56:13 AM 21.7667 -158.9833 255° West 290 334 6,500 -2,200 Descending Honolulu Center
Sun 12:57:13 AM 21.7500 -159.0833 260° West 290 334 4,200 -1,750 Descending Honolulu Center
Sun 12:58:13 AM 21.7333 -159.1667 258° West 280 322 3,000 -600 Descending Honolulu Center
Sun 12:59:13 AM 21.7333 -159.2333 270° West 240 276 3,000  Level Honolulu Center
Sun 01:00:13 AM 21.7667 -159.2833 306° West 240 276 3,000 50 Level Honolulu Center
Sun 01:01:13 AM 21.8000 -159.3333 306° West 180 207 3,100 -450 Climbing Honolulu Center
Sun 01:02:13 AM 21.8500 -159.3333 360° North 170 196 2,100 -1,000 Descending Honolulu Center

Login

Don't have an account? Register now (free) for customized features, flight alerts, and more!